Time;durP1;ratioP1;P1;durP2;ratioP2;P2;SDS_P1;SDS_P2;PMS_P1;PMS_P2;Temp;Humidity;BMP_temperature;BMP_pressure;BME280_temperature;BME280_humidity;BME280_pressure;Samples;Min_cycle;Max_cycle;Signal;HPM_P1;HPM_P2
2021/12/28 00:01:06;;;;;;;;;;;;;;;6.32;63.39;99247.31;5063894;28;19935;-78
2021/12/28 00:03:31;;;;;;;;;;;;;;;6.30;63.39;99236.81;5061470;28;20324;-78
2021/12/28 00:05:58;;;;;;;;;;;;;;;6.23;63.39;99245.31;5075645;28;19955;-78
2021/12/28 00:08:24;;;;;;;;;;;;;;;6.27;63.39;99242.81;5061497;28;20286;-78
2021/12/28 00:10:50;;;;;;;;;;;;;;;6.23;63.40;99237.47;5058684;28;19925;-78
2021/12/28 00:13:16;;;;;;;;;;;;;;;6.21;63.41;99245.25;5073034;28;19935;-78
2021/12/28 00:16:12;;;;;;;;;;;;;;;6.17;63.40;99252.97;5074617;28;19972;-78
2021/12/28 00:18:38;;;;;;;;;;;;;;;6.19;63.39;99249.56;5074213;28;19920;-78
2021/12/28 00:21:05;;;;;;;;;;;;;;;6.22;63.39;99248.78;5062664;28;19947;-76
2021/12/28 00:23:37;;;;;;;;;;;;;;;6.21;63.38;99247.00;5063994;28;19963;-77
2021/12/28 00:26:03;;;;;;;;;;;;;;;6.20;63.38;99245.22;5056277;28;19924;-77
2021/12/28 00:28:29;;;;;;;;;;;;;;;6.20;63.39;99245.22;5061234;28;19921;-78
2021/12/28 00:30:55;;;;;;;;;;;;;;;6.14;63.39;99242.44;5063974;28;20542;-78
2021/12/28 00:33:22;;;;;;;;;;;;;;;6.14;63.39;99243.34;5065968;28;19986;-78
2021/12/28 00:35:49;;;;;;;;;;;;;;;6.17;63.38;99239.91;5065005;28;19975;-78
2021/12/28 00:38:22;;;;;;;;;;;;;;;6.16;63.39;99239.03;5071020;28;19920;-76
2021/12/28 00:40:56;;;;;;;;;;;;;;;6.11;63.40;99240.66;5073990;28;19924;-78
2021/12/28 00:43:23;;;;;;;;;;;;;;;6.08;63.39;99235.34;5070299;28;19920;-78
2021/12/28 00:45:49;;;;;;;;;;;;;;;6.11;63.38;99235.41;5066219;28;19950;-77
2021/12/28 00:48:16;;;;;;;;;;;;;;;6.17;63.38;99235.59;5065271;28;20404;-77
2021/12/28 00:50:41;;;;;;;;;;;;;;;6.11;63.38;99225.84;5050996;28;19924;-78
2021/12/28 00:53:07;;;;;;;;;;;;;;;6.10;63.37;99225.78;5061300;28;19993;-78
2021/12/28 00:55:32;;;;;;;;;;;;;;;6.10;63.38;99225.78;5080303;28;19920;-78
2021/12/28 00:57:59;;;;;;;;;;;;;;;6.03;63.39;99216.91;5068746;28;19920;-78
2021/12/28 01:00:26;;;;;;;;;;;;;;;6.05;63.38;99224.78;5076630;28;19928;-77
2021/12/28 01:02:51;;;;;;;;;;;;;;;6.05;63.39;99222.19;5094522;28;19965;-77
2021/12/28 01:05:17;;;;;;;;;;;;;;;6.09;63.38;99217.09;5059221;28;20525;-77
2021/12/28 01:07:43;;;;;;;;;;;;;;;6.19;63.38;99212.97;5080341;28;19920;-78
2021/12/28 01:10:11;;;;;;;;;;;;;;;6.25;63.37;99210.53;5072021;28;19924;-78
2021/12/28 01:12:36;;;;;;;;;;;;;;;6.20;63.37;99206.00;5059249;28;20317;-78
2021/12/28 01:15:03;;;;;;;;;;;;;;;6.22;63.37;99196.50;5059568;28;19951;-77
2021/12/28 01:17:29;;;;;;;;;;;;;;;6.14;63.39;99192.78;5065836;28;19937;-77
2021/12/28 01:19:55;;;;;;;;;;;;;;;6.09;63.38;99198.78;5062665;28;19928;-77
2021/12/28 01:22:20;;;;;;;;;;;;;;;6.09;63.37;99195.25;5060190;28;19986;-77
2021/12/28 01:24:46;;;;;;;;;;;;;;;6.03;63.37;99202.94;5058012;28;19924;-76
2021/12/28 01:27:11;;;;;;;;;;;;;;;6.01;63.38;99202.03;5058919;28;19928;-77
2021/12/28 01:29:38;;;;;;;;;;;;;;;6.07;63.38;99197.84;5059449;28;19925;-77
2021/12/28 01:32:03;;;;;;;;;;;;;;;6.04;63.37;99196.88;5059105;28;19995;-77
2021/12/28 01:34:28;;;;;;;;;;;;;;;6.06;63.36;99196.09;5068737;28;19947;-76
2021/12/28 01:36:54;;;;;;;;;;;;;;;6.13;63.36;99197.13;5061844;28;20007;-78
2021/12/28 01:39:19;;;;;;;;;;;;;;;6.23;63.35;99200.88;5050514;28;20376;-77
2021/12/28 01:41:46;;;;;;;;;;;;;;;6.23;63.33;99199.16;5081358;28;19927;-78
2021/12/28 01:44:12;;;;;;;;;;;;;;;6.28;63.34;99200.16;5067800;28;19920;-78
2021/12/28 01:46:38;;;;;;;;;;;;;;;6.30;63.34;99200.22;5091109;28;19931;-78
2021/12/28 01:49:08;;;;;;;;;;;;;;;6.37;63.34;99193.41;5058257;28;19920;-78
2021/12/28 01:51:34;;;;;;;;;;;;;;;6.34;63.33;99193.31;5056561;28;19921;-78
2021/12/28 01:54:00;;;;;;;;;;;;;;;6.29;63.34;99194.09;5078486;28;19950;-78
2021/12/28 01:56:27;;;;;;;;;;;;;;;6.31;63.34;99196.75;5066644;28;19920;-78
2021/12/28 01:58:55;;;;;;;;;;;;;;;6.32;63.34;99200.25;5078193;28;19973;-76
2021/12/28 02:01:21;;;;;;;;;;;;;;;6.30;63.34;99200.22;5069482;28;19925;-76
2021/12/28 02:03:48;;;;;;;;;;;;;;;6.30;63.34;99192.34;5058620;28;19966;-77
2021/12/28 02:06:13;;;;;;;;;;;;;;;6.28;63.35;99191.44;5059144;28;19946;-78
2021/12/28 02:08:40;;;;;;;;;;;;;;;6.36;63.32;99191.66;5076236;28;19920;-77
2021/12/28 02:11:06;;;;;;;;;;;;;;;6.28;63.35;99202.78;5078355;28;20304;-77
2021/12/28 02:13:31;;;;;;;;;;;;;;;6.21;63.34;99203.44;5073719;28;19962;-77
2021/12/28 02:15:59;;;;;;;;;;;;;;;6.18;63.34;99199.88;5072409;28;19923;-78
2021/12/28 02:18:30;;;;;;;;;;;;;;;6.14;63.35;99201.53;5078481;28;19920;-78
2021/12/28 02:20:56;;;;;;;;;;;;;;;6.18;63.33;99189.41;5071415;28;19928;-78
2021/12/28 02:23:23;;;;;;;;;;;;;;;6.10;63.33;99184.84;5062100;28;20405;-78
2021/12/28 02:25:49;;;;;;;;;;;;;;;6.01;63.35;99184.63;5071710;28;20560;-76
2021/12/28 02:28:16;;;;;;;;;;;;;;;6.09;63.33;99188.34;5096395;28;20010;-77
2021/12/28 02:30:43;;;;;;;;;;;;;;;6.09;63.32;99185.72;5074007;28;19920;-77
2021/12/28 02:33:08;;;;;;;;;;;;;;;6.02;63.34;99193.34;5079077;28;20064;-78
2021/12/28 02:35:34;;;;;;;;;;;;;;;5.94;63.35;99191.38;5073119;28;19993;-76
2021/12/28 02:38:00;;;;;;;;;;;;;;;5.82;63.36;99190.16;5057657;28;19921;-77
2021/12/28 02:40:26;;;;;;;;;;;;;;;5.92;63.35;99197.41;5062177;28;19928;-76
2021/12/28 02:42:52;;;;;;;;;;;;;;;5.96;63.35;99186.19;5060524;28;19924;-78
2021/12/28 02:45:23;;;;;;;;;;;;;;;6.02;63.35;99185.50;5070212;28;19970;-78
2021/12/28 02:47:48;;;;;;;;;;;;;;;6.09;63.32;99185.72;5067508;28;19916;-78
2021/12/28 02:50:16;;;;;;;;;;;;;;;6.10;63.33;99187.47;5058289;28;20043;-78
2021/12/28 02:52:41;;;;;;;;;;;;;;;6.15;63.34;99189.34;5060248;28;20321;-78
2021/12/28 02:55:08;;;;;;;;;;;;;;;6.16;63.34;99175.44;5065946;28;19931;-78
2021/12/28 02:57:34;;;;;;;;;;;;;;;6.17;63.33;99178.09;5068177;28;19950;-78
2021/12/28 03:00:00;;;;;;;;;;;;;;;6.20;63.33;99172.94;5075488;28;20343;-77
2021/12/28 03:02:25;;;;;;;;;;;;;;;6.22;63.33;99172.97;5065019;28;19970;-77
2021/12/28 03:04:52;;;;;;;;;;;;;;;6.22;63.33;99171.25;5076710;28;19923;-77
2021/12/28 03:07:17;;;;;;;;;;;;;;;6.26;63.32;99170.50;5072001;28;20008;-79
2021/12/28 03:09:43;;;;;;;;;;;;;;;6.30;63.32;99168.84;5060652;28;20384;-78
2021/12/28 03:12:09;;;;;;;;;;;;;;;6.29;63.33;99164.44;5074147;28;19927;-78
2021/12/28 03:14:35;;;;;;;;;;;;;;;6.30;63.32;99161.00;5063950;28;19959;-78
2021/12/28 03:17:00;;;;;;;;;;;;;;;6.33;63.32;99166.31;5072353;28;20009;-78
2021/12/28 03:19:26;;;;;;;;;;;;;;;6.35;63.31;99171.56;5062241;28;19935;-78
2021/12/28 03:21:51;;;;;;;;;;;;;;;6.39;63.32;99169.06;5059322;28;19927;-77
2021/12/28 03:24:17;;;;;;;;;;;;;;;6.41;63.30;99164.75;5056752;28;19924;-79
2021/12/28 03:26:43;;;;;;;;;;;;;;;6.43;63.31;99163.09;5066866;28;19920;-78
2021/12/28 03:29:15;;;;;;;;;;;;;;;6.46;63.30;99154.41;5066153;28;19928;-78
2021/12/28 03:31:41;;;;;;;;;;;;;;;6.44;63.31;99156.13;5059856;28;20354;-78
2021/12/28 03:34:06;;;;;;;;;;;;;;;6.41;63.31;99156.91;5056258;28;19943;-77
2021/12/28 03:36:31;;;;;;;;;;;;;;;6.44;63.30;99145.66;5060791;28;19928;-78
2021/12/28 03:38:59;;;;;;;;;;;;;;;6.44;63.30;99133.47;5056897;28;19925;-77
2021/12/28 03:41:25;;;;;;;;;;;;;;;6.37;63.30;99128.94;5057552;28;19921;-77
2021/12/28 03:43:52;;;;;;;;;;;;;;;6.39;63.30;99136.81;5057224;28;20242;-77
2021/12/28 03:46:18;;;;;;;;;;;;;;;6.38;63.29;99127.19;5087122;28;19960;-75
2021/12/28 03:48:45;;;;;;;;;;;;;;;6.39;63.27;99127.25;5061873;28;19943;-76
2021/12/28 03:51:11;;;;;;;;;;;;;;;6.46;63.28;99123.03;5072981;28;19927;-77
2021/12/28 03:53:36;;;;;;;;;;;;;;;6.48;63.27;99131.81;5063137;28;19924;-77
2021/12/28 03:56:02;;;;;;;;;;;;;;;6.49;63.28;99122.25;5074869;28;19939;-76
2021/12/28 03:58:28;;;;;;;;;;;;;;;6.55;63.26;99117.16;5063274;28;19973;-76
2021/12/28 04:00:53;;;;;;;;;;;;;;;6.55;63.27;99112.81;5064459;28;19920;-78
2021/12/28 04:03:18;;;;;;;;;;;;;;;6.58;63.26;99117.25;5062997;28;20361;-78
2021/12/28 04:05:46;;;;;;;;;;;;;;;6.56;63.26;99116.31;5070523;28;19927;-78
2021/12/28 04:08:13;;;;;;;;;;;;;;;6.58;63.25;99117.25;5067776;28;19928;-78
2021/12/28 04:10:51;;;;;;;;;;;;;;;6.61;63.25;99112.94;5062341;28;19927;-78
2021/12/28 04:13:18;;;;;;;;;;;;;;;6.63;63.25;99115.59;5073938;28;19927;-78
2021/12/28 04:15:43;;;;;;;;;;;;;;;6.66;63.26;99115.69;5076350;28;19943;-79
2021/12/28 04:18:18;;;;;;;;;;;;;;;6.66;63.26;99105.22;5061283;28;19948;-78
2021/12/28 04:20:44;;;;;;;;;;;;;;;6.65;63.24;99106.09;5094831;28;19924;-77
2021/12/28 04:23:10;;;;;;;;;;;;;;;6.69;63.24;99110.53;5061424;28;19928;-78
2021/12/28 04:25:35;;;;;;;;;;;;;;;6.69;63.24;99107.91;5069515;28;19999;-78
2021/12/28 04:28:01;;;;;;;;;;;;;;;6.69;63.26;99100.06;5063825;28;20042;-78
2021/12/28 04:30:26;;;;;;;;;;;;;;;6.69;63.25;99099.19;5075538;28;19955;-78
2021/12/28 04:32:51;;;;;;;;;;;;;;;6.73;63.25;99107.13;5074436;28;19967;-78
2021/12/28 04:35:17;;;;;;;;;;;;;;;6.72;63.24;99092.28;5076601;28;19946;-78
2021/12/28 04:37:42;;;;;;;;;;;;;;;6.73;63.22;99093.19;5055555;28;20616;-78
2021/12/28 04:40:09;;;;;;;;;;;;;;;6.82;63.22;99091.66;5065620;28;20031;-79
2021/12/28 04:42:35;;;;;;;;;;;;;;;6.79;63.23;99095.91;5054712;28;20006;-79
2021/12/28 04:45:01;;;;;;;;;;;;;;;6.86;63.22;99087.38;5073991;28;20100;-78
2021/12/28 04:47:27;;;;;;;;;;;;;;;6.85;63.23;99093.44;5064197;28;19927;-78
2021/12/28 04:49:53;;;;;;;;;;;;;;;6.87;63.23;91205.50;5059092;28;20004;-78
2021/12/28 04:52:18;;;;;;;;;;;;;;;6.89;63.23;95802.34;5056423;28;19925;-78
2021/12/28 04:54:44;;;;;;;;;;;;;;;6.92;63.22;95810.09;5070600;28;19966;-76
2021/12/28 04:57:14;;;;;;;;;;;;;;;7.02;63.21;95808.06;5058852;28;19920;-78
2021/12/28 04:59:39;;;;;;;;;;;;;;;7.06;63.21;95799.22;5055538;28;19921;-77
2021/12/28 05:02:05;;;;;;;;;;;;;;;7.10;63.21;95811.31;5055972;28;19927;-78
2021/12/28 05:04:30;;;;;;;;;;;;;;;7.17;63.21;95796.28;5050068;28;19925;-77
2021/12/28 05:06:58;;;;;;;;;;;;;;;7.16;63.20;95792.81;5055042;28;19921;-78
2021/12/28 05:09:26;;;;;;;;;;;;;;;7.18;63.21;95780.53;5072640;28;20307;-77
2021/12/28 05:11:51;;;;;;;;;;;;;;;7.26;63.20;95780.28;5059724;28;19935;-78
2021/12/28 05:14:18;;;;;;;;;;;;;;;7.35;63.20;95789.63;5055081;28;19925;-78
2021/12/28 05:16:44;;;;;;;;;;;;;;;7.35;63.18;95811.38;5066157;28;20513;-78
2021/12/28 05:19:11;;;;;;;;;;;;;;;7.36;63.19;95814.84;5066021;28;19921;-77
2021/12/28 05:21:36;;;;;;;;;;;;;;;7.41;63.17;95825.16;5050705;28;20651;-78
2021/12/28 05:24:03;;;;;;;;;;;;;;;7.44;63.19;95833.81;5066872;28;19920;-77
2021/12/28 05:26:29;;;;;;;;;;;;;;;7.45;63.20;95842.50;5063840;28;19921;-77
2021/12/28 05:28:59;;;;;;;;;;;;;;;7.48;63.19;95848.47;5052865;28;19928;-78
2021/12/28 05:31:28;;;;;;;;;;;;;;;7.53;63.18;95862.25;5060768;28;19966;-78
2021/12/28 05:33:54;;;;;;;;;;;;;;;7.58;63.18;95867.34;5058524;28;20387;-77
2021/12/28 05:36:22;;;;;;;;;;;;;;;7.58;63.18;95956.34;5052243;28;19920;-78
2021/12/28 05:38:47;;;;;;;;;;;;;;;7.59;63.17;95979.00;5062734;28;19924;-77
2021/12/28 05:41:13;;;;;;;;;;;;;;;7.59;63.18;95981.63;5055470;28;19966;-77
2021/12/28 05:43:38;;;;;;;;;;;;;;;7.62;63.18;95975.44;5052630;28;19925;-78
2021/12/28 05:46:03;;;;;;;;;;;;;;;7.66;63.18;95969.19;5069279;28;19927;-78
2021/12/28 05:48:31;;;;;;;;;;;;;;;7.65;63.17;95985.81;5075127;28;19925;-77
2021/12/28 05:50:58;;;;;;;;;;;;;;;7.69;63.16;95992.66;5044062;28;20325;-78
2021/12/28 05:53:23;;;;;;;;;;;;;;;7.71;63.18;95998.72;5055561;28;19921;-78
2021/12/28 05:55:48;;;;;;;;;;;;;;;7.72;63.17;95998.69;5041080;28;19929;-78
2021/12/28 05:58:17;;;;;;;;;;;;;;;7.73;63.16;95994.28;5065175;28;19920;-77
2021/12/28 06:00:43;;;;;;;;;;;;;;;7.70;63.17;96002.25;5055909;28;19925;-77
2021/12/28 06:03:08;;;;;;;;;;;;;;;7.70;63.18;96010.94;5073338;28;19921;-78
2021/12/28 06:05:35;;;;;;;;;;;;;;;7.72;63.17;96014.41;5055362;28;19928;-77
2021/12/28 06:08:01;;;;;;;;;;;;;;;7.70;63.17;96021.41;5055108;28;19921;-78
2021/12/28 06:10:26;;;;;;;;;;;;;;;7.75;63.16;96017.81;5059751;28;19924;-80
2021/12/28 06:12:52;;;;;;;;;;;;;;;7.73;63.16;96021.31;5075224;28;20371;-77
2021/12/28 06:15:18;;;;;;;;;;;;;;;7.70;63.17;96023.19;5067390;28;19925;-78
2021/12/28 06:17:45;;;;;;;;;;;;;;;7.73;63.16;96021.31;5062221;28;19921;-77
2021/12/28 06:20:10;;;;;;;;;;;;;;;7.76;63.16;96019.53;5064618;28;20010;-78
2021/12/28 06:22:37;;;;;;;;;;;;;;;7.76;63.16;96024.78;5075145;28;19959;-77
2021/12/28 06:25:03;;;;;;;;;;;;;;;7.79;63.16;96035.16;5064671;28;19931;-77
2021/12/28 06:27:30;;;;;;;;;;;;;;;7.78;63.16;96050.00;5054925;28;20014;-78
2021/12/28 06:29:56;;;;;;;;;;;;;;;7.83;63.14;96069.06;5054892;28;19925;-77
2021/12/28 06:32:21;;;;;;;;;;;;;;;7.81;63.16;96086.56;5055263;28;19927;-78
2021/12/28 06:34:46;;;;;;;;;;;;;;;7.83;63.16;96087.38;5054931;28;19927;-78
2021/12/28 06:37:16;;;;;;;;;;;;;;;7.81;63.16;96111.88;5056607;28;20246;-78
2021/12/28 06:39:41;;;;;;;;;;;;;;;7.84;63.15;96120.50;5054933;28;19921;-78
2021/12/28 06:42:06;;;;;;;;;;;;;;;7.86;63.15;96178.06;5060180;28;19924;-78
2021/12/28 06:44:32;;;;;;;;;;;;;;;7.82;63.16;96218.38;5071132;28;19978;-78
2021/12/28 06:46:57;;;;;;;;;;;;;;;7.84;63.13;99586.44;5055158;28;19932;-77
2021/12/28 06:49:23;;;;;;;;;;;;;;;7.84;63.13;99628.38;5066480;28;19928;-78
2021/12/28 06:51:49;;;;;;;;;;;;;;;7.86;63.14;99621.47;5071137;28;19920;-79
2021/12/28 06:54:14;;;;;;;;;;;;;;;7.87;63.14;99557.69;5074549;28;20229;-76
2021/12/28 06:56:40;;;;;;;;;;;;;;;7.90;63.14;99512.34;5090617;28;20007;-78
2021/12/28 06:59:09;;;;;;;;;;;;;;;7.93;63.15;99491.44;5094616;28;20271;-78
2021/12/28 07:01:38;;;;;;;;;;;;;;;7.91;63.14;99488.78;5080629;28;19974;-78
2021/12/28 07:04:06;;;;;;;;;;;;;;;7.93;63.14;99490.56;5073190;28;19924;-78
2021/12/28 07:06:32;;;;;;;;;;;;;;;7.89;63.14;99490.50;5073907;28;19949;-79
2021/12/28 07:08:58;;;;;;;;;;;;;;;7.91;63.13;99491.41;5073665;28;20360;-78
2021/12/28 07:11:23;;;;;;;;;;;;;;;7.96;63.13;99493.25;5071447;28;19920;-76
2021/12/28 07:13:49;;;;;;;;;;;;;;;7.96;63.13;99486.28;5073928;28;19934;-78
2021/12/28 07:16:15;;;;;;;;;;;;;;;8.02;63.13;99486.44;5073730;28;19917;-78
2021/12/28 07:18:45;;;;;;;;;;;;;;;7.97;63.13;99467.09;5058942;28;19921;-78
2021/12/28 07:21:10;;;;;;;;;;;;;;;7.96;63.12;99465.31;5053550;28;19966;-79
2021/12/28 07:23:36;;;;;;;;;;;;;;;7.94;63.13;99464.38;5066982;28;19920;-78
2021/12/28 07:26:01;;;;;;;;;;;;;;;7.99;63.12;99469.75;5073022;28;19925;-78
2021/12/28 07:28:27;;;;;;;;;;;;;;;7.96;63.14;99472.28;5072130;28;20017;-78
2021/12/28 07:30:54;;;;;;;;;;;;;;;7.97;63.13;99474.03;5073544;28;20383;-78
2021/12/28 07:33:21;;;;;;;;;;;;;;;7.99;63.12;99475.00;5057016;28;20003;-78
2021/12/28 07:35:46;;;;;;;;;;;;;;;8.04;63.13;99473.34;5053432;28;19920;-77
2021/12/28 07:38:13;;;;;;;;;;;;;;;8.08;63.12;99477.84;5053439;28;19927;-78
2021/12/28 07:40:38;;;;;;;;;;;;;;;8.07;63.13;99469.06;5079473;28;19926;-78
2021/12/28 07:43:03;;;;;;;;;;;;;;;8.07;63.12;99468.19;5065700;28;20007;-78
2021/12/28 07:45:31;;;;;;;;;;;;;;;8.08;63.13;99454.25;5060081;28;19920;-80
2021/12/28 07:47:57;;;;;;;;;;;;;;;8.09;63.12;99458.59;5036463;28;19935;-78
2021/12/28 07:50:22;;;;;;;;;;;;;;;8.08;63.13;99443.75;5052775;28;19927;-78
2021/12/28 07:52:48;;;;;;;;;;;;;;;8.05;63.13;99447.19;5052659;28;19920;-77
2021/12/28 07:55:14;;;;;;;;;;;;;;;8.07;63.11;99447.22;5053740;28;19921;-78
2021/12/28 07:57:40;;;;;;;;;;;;;;;8.09;63.12;99456.00;5053213;28;19921;-78
2021/12/28 08:00:08;;;;;;;;;;;;;;;8.05;63.12;99443.69;5052802;28;19924;-78
2021/12/28 08:02:35;;;;;;;;;;;;;;;8.09;63.12;99442.88;5065657;28;19920;-77
2021/12/28 08:05:00;;;;;;;;;;;;;;;8.08;63.12;99449.88;5072392;28;19966;-77
2021/12/28 08:07:27;;;;;;;;;;;;;;;8.15;63.13;99444.78;5073173;28;20492;-77
2021/12/28 08:09:52;;;;;;;;;;;;;;;8.18;63.10;99448.34;5067148;28;19973;-76
2021/12/28 08:12:18;;;;;;;;;;;;;;;8.22;63.09;99441.44;5072483;28;20007;-78
2021/12/28 08:14:43;;;;;;;;;;;;;;;8.18;63.10;99443.09;5072468;28;19951;-78
2021/12/28 08:17:09;;;;;;;;;;;;;;;8.18;63.11;99443.09;5072543;28;19974;-78
2021/12/28 08:19:37;;;;;;;;;;;;;;;8.16;63.11;99439.56;5070989;28;20025;-77
2021/12/28 08:22:03;;;;;;;;;;;;;;;8.18;63.12;99434.34;5071959;28;20265;-78
2021/12/28 08:24:29;;;;;;;;;;;;;;;8.13;63.10;99434.25;5072821;28;19921;-78
2021/12/28 08:26:54;;;;;;;;;;;;;;;8.16;63.11;99436.94;5072431;28;19939;-78
2021/12/28 08:29:21;;;;;;;;;;;;;;;8.17;63.10;99433.47;5071905;28;19920;-79
2021/12/28 08:31:46;;;;;;;;;;;;;;;8.23;63.09;99427.47;5071169;28;19920;-79
2021/12/28 08:34:12;;;;;;;;;;;;;;;8.18;63.10;99431.72;5071792;28;19921;-78
2021/12/28 08:36:37;;;;;;;;;;;;;;;8.20;63.10;99423.06;5071587;28;19930;-78
2021/12/28 08:39:05;;;;;;;;;;;;;;;8.26;63.10;99422.28;5073110;28;19973;-79
2021/12/28 08:41:30;;;;;;;;;;;;;;;8.30;63.10;99429.38;5072611;28;19920;-78
2021/12/28 08:43:56;;;;;;;;;;;;;;;8.26;63.10;99423.19;5062452;28;19928;-79
2021/12/28 08:46:21;;;;;;;;;;;;;;;8.30;63.10;99415.38;5035784;28;20011;-78
2021/12/28 08:48:47;;;;;;;;;;;;;;;8.32;63.11;99416.31;5035608;28;19963;-79
2021/12/28 08:51:13;;;;;;;;;;;;;;;8.34;63.10;99425.09;5052072;28;19947;-78
2021/12/28 08:53:38;;;;;;;;;;;;;;;8.39;63.09;99412.94;5053161;28;19924;-78
2021/12/28 08:56:24;;;;;;;;;;;;;;;8.44;63.10;99411.38;5051856;28;19999;-77
2021/12/28 08:59:20;;;;;;;;;;;;;;;;;;;;;
2021/12/28 09:04:43;;;;;;;;;;;;;;;8.54;63.10;99401.94;5067708;28;19920;-78
2021/12/28 09:07:09;;;;;;;;;;;;;;;8.58;63.11;99398.53;5054914;28;19924;-79
2021/12/28 09:09:34;;;;;;;;;;;;;;;8.61;63.12;99388.09;5059876;28;20008;-78
2021/12/28 09:11:59;;;;;;;;;;;;;;;8.61;63.14;99381.09;5075154;28;20003;-79
2021/12/28 09:14:25;;;;;;;;;;;;;;;8.66;63.15;99393.44;5076490;28;19946;-78
2021/12/28 09:16:53;;;;;;;;;;;;;;;8.67;63.14;99380.34;5062264;28;19924;-78
2021/12/28 09:19:27;;;;;;;;;;;;;;;8.70;63.16;99376.88;5078840;28;19927;-78
2021/12/28 09:21:53;;;;;;;;;;;;;;;8.69;63.16;99375.16;5079166;28;19927;-79
2021/12/28 09:27:25;;;;;;;;;;;;;;;8.71;63.22;99361.19;5063885;28;19966;-78
2021/12/28 09:29:50;;;;;;;;;;;;;;;8.68;63.22;99360.25;5057676;28;19926;-78
2021/12/28 09:32:16;;;;;;;;;;;;;;;8.69;63.25;99354.16;5058828;28;20347;-78
2021/12/28 09:34:43;;;;;;;;;;;;;;;8.69;63.26;99349.78;5076575;28;19924;-78
2021/12/28 09:37:08;;;;;;;;;;;;;;;8.71;63.31;99345.44;5058371;28;19925;-78
2021/12/28 09:39:33;;;;;;;;;;;;;;;8.69;63.35;99341.03;5058020;28;19927;-78
2021/12/28 09:42:00;;;;;;;;;;;;;;;8.73;63.38;99338.50;5058661;28;19924;-79
2021/12/28 09:44:27;;;;;;;;;;;;;;;8.73;63.43;99341.13;5089643;28;19924;-79
2021/12/28 09:46:53;;;;;;;;;;;;;;;8.78;63.51;99330.72;5095868;28;19927;-79
2021/12/28 09:49:22;;;;;;;;;;;;;;;8.79;63.58;99329.81;5078866;28;19955;-77
2021/12/28 09:51:49;;;;;;;;;;;;;;;8.80;63.65;99326.34;5078102;28;19924;-78
2021/12/28 09:54:15;;;;;;;;;;;;;;;8.87;63.75;99323.00;5096545;28;19920;-78
2021/12/28 09:56:41;;;;;;;;;;;;;;;8.90;63.89;99304.69;5078799;28;20443;-78
2021/12/28 09:59:11;;;;;;;;;;;;;;;8.92;64.09;99310.84;5078784;28;19993;-77
2021/12/28 10:01:37;;;;;;;;;;;;;;;8.93;64.31;99294.25;5077432;28;19962;-77
2021/12/28 10:04:02;;;;;;;;;;;;;;;8.96;64.59;99291.66;5061460;28;19948;-78
2021/12/28 10:06:29;;;;;;;;;;;;;;;9.00;64.98;99297.84;5078227;28;19924;-77
2021/12/28 10:09:16;;;;;;;;;;;;;;;9.04;65.80;99297.03;5077125;28;19920;-77
2021/12/28 10:11:48;;;;;;;;;;;;;;;9.04;66.79;99293.53;5078069;28;19942;-78
2021/12/28 10:14:26;;;;;;;;;;;;;;;9.02;67.14;99284.75;5078354;28;20530;-77
2021/12/28 10:17:00;;;;;;;;;;;;;;;8.98;67.16;99271.56;5096085;28;19955;-77
2021/12/28 10:19:36;;;;;;;;;;;;;;;8.97;67.02;99256.66;5058173;28;19965;-78
2021/12/28 10:22:20;;;;;;;;;;;;;;;8.97;67.58;99255.78;5057401;28;19960;-77
2021/12/28 10:24:46;;;;;;;;;;;;;;;9.02;68.34;99253.25;5057547;28;19920;-78
2021/12/28 10:27:15;;;;;;;;;;;;;;;9.05;69.17;99263.78;5056722;28;19966;-77
2021/12/28 10:29:41;;;;;;;;;;;;;;;9.05;70.20;99255.91;5057506;28;19924;-78
2021/12/28 10:32:16;;;;;;;;;;;;;;;9.03;71.40;99255.00;5057847;28;20318;-78
2021/12/28 10:34:50;;;;;;;;;;;;;;;9.02;72.69;99243.59;5063522;28;19920;-77
2021/12/28 10:37:15;;;;;;;;;;;;;;;9.01;73.13;99240.97;5077825;28;20356;-78
2021/12/28 10:39:51;;;;;;;;;;;;;;;9.05;73.59;99246.28;5077342;28;19963;-78
2021/12/28 10:42:35;;;;;;;;;;;;;;;9.02;74.52;99233.09;5076457;28;19924;-77
2021/12/28 10:45:00;;;;;;;;;;;;;;;9.01;75.11;99223.47;5079693;28;19924;-78
2021/12/28 10:47:27;;;;;;;;;;;;;;;9.01;75.58;99217.31;5102281;28;19922;-78
2021/12/28 10:49:52;;;;;;;;;;;;;;;9.03;76.05;99216.50;5082093;28;19920;-77
2021/12/28 10:52:29;;;;;;;;;;;;;;;9.02;76.60;99216.47;5082558;28;19924;-78
2021/12/28 10:55:13;;;;;;;;;;;;;;;9.01;77.25;99217.31;5078287;28;20004;-78
2021/12/28 10:57:40;;;;;;;;;;;;;;;9.04;77.62;99215.63;5078105;28;19927;-77
2021/12/28 11:00:21;;;;;;;;;;;;;;;9.02;78.20;99208.59;5077623;28;19927;-78
2021/12/28 11:02:46;;;;;;;;;;;;;;;8.98;78.58;99205.94;5082135;28;19920;-78
2021/12/28 11:05:32;;;;;;;;;;;;;;;8.93;78.62;99190.94;5083964;28;19927;-77
2021/12/28 11:07:59;;;;;;;;;;;;;;;8.90;78.32;99191.81;5079895;28;19924;-77
2021/12/28 11:10:28;;;;;;;;;;;;;;;8.84;78.15;99181.22;5075521;28;19928;-77
2021/12/28 11:12:55;;;;;;;;;;;;;;;8.87;77.94;99189.13;5074476;28;19920;-78
2021/12/28 11:15:21;;;;;;;;;;;;;;;8.85;77.58;99177.69;5077391;28;19927;-77
2021/12/28 11:17:46;;;;;;;;;;;;;;;8.87;77.58;99180.34;5076385;28;19961;-77
2021/12/28 11:20:12;;;;;;;;;;;;;;;8.88;77.56;99176.88;5076588;28;19946;-77
2021/12/28 11:22:38;;;;;;;;;;;;;;;8.87;77.53;99178.63;5094610;28;20432;-77
2021/12/28 11:25:16;;;;;;;;;;;;;;;8.84;77.54;99172.44;5076281;28;19963;-77
2021/12/28 11:27:43;;;;;;;;;;;;;;;8.90;77.13;99167.28;5094429;28;19916;-78
2021/12/28 11:30:13;;;;;;;;;;;;;;;8.90;77.26;99154.16;5076899;28;20114;-78
2021/12/28 11:32:38;;;;;;;;;;;;;;;8.89;77.12;99162.91;5076167;28;20014;-79
2021/12/28 11:35:04;;;;;;;;;;;;;;;8.84;76.85;99175.06;5059941;28;19958;-79
2021/12/28 11:37:31;;;;;;;;;;;;;;;8.92;77.26;99162.94;5076605;28;19945;-78
2021/12/28 11:39:59;;;;;;;;;;;;;;;8.92;77.40;99163.81;5076235;28;20520;-77
2021/12/28 11:42:26;;;;;;;;;;;;;;;8.91;77.27;99153.31;5091686;28;20027;-77
2021/12/28 11:44:52;;;;;;;;;;;;;;;8.93;77.61;99154.19;5056503;28;19993;-78
2021/12/28 11:47:19;;;;;;;;;;;;;;;8.92;78.20;99141.94;5058139;28;19924;-78
2021/12/28 11:49:45;;;;;;;;;;;;;;;8.86;78.89;99168.09;5076040;28;20379;-78
2021/12/28 11:52:13;;;;;;;;;;;;;;;8.73;79.67;99174.88;5076470;28;19928;-78
2021/12/28 11:54:43;;;;;;;;;;;;;;;8.58;82.97;99175.53;5059734;28;19998;-78
2021/12/28 11:57:11;;;;;;;;;;;;;;;8.50;86.89;99177.09;5094459;28;19927;-79
2021/12/28 11:59:36;;;;;;;;;;;;;;;8.49;89.29;99173.59;5075713;28;19989;-78
2021/12/28 12:02:03;;;;;;;;;;;;;;;8.50;91.85;99164.00;5059494;28;19924;-78
2021/12/28 12:04:34;;;;;;;;;;;;;;;8.49;94.56;99157.88;5076010;28;19920;-78
2021/12/28 12:07:06;;;;;;;;;;;;;;;8.50;96.97;99138.66;5075541;28;19920;-79
2021/12/28 12:09:32;;;;;;;;;;;;;;;8.49;99.65;99131.63;5074403;28;19920;-78
2021/12/28 12:12:17;;;;;;;;;;;;;;;8.47;100.00;99122.88;5055650;28;20439;-78
2021/12/28 12:14:52;;;;;;;;;;;;;;;8.56;100.00;99123.03;5055182;28;19921;-79
2021/12/28 12:17:39;;;;;;;;;;;;;;;8.60;100.00;99102.97;5066448;28;20024;-77
2021/12/28 12:20:17;;;;;;;;;;;;;;;8.62;100.00;99090.72;5075897;28;19946;-77
2021/12/28 12:22:48;;;;;;;;;;;;;;;8.63;100.00;99088.13;5075956;28;20372;-77
2021/12/28 12:25:13;;;;;;;;;;;;;;;8.72;100.00;99071.66;5094201;28;19920;-77
2021/12/28 12:28:00;;;;;;;;;;;;;;;8.83;100.00;99073.56;5075814;28;19966;-78
2021/12/28 12:30:27;;;;;;;;;;;;;;;8.95;100.00;99064.13;5076041;28;19924;-78
2021/12/28 12:32:57;;;;;;;;;;;;;;;9.16;100.00;99054.75;5075541;28;20352;-78
2021/12/28 12:35:28;;;;;;;;;;;;;;;9.37;100.00;99058.50;5055937;28;20345;-78
2021/12/28 12:37:54;;;;;;;;;;;;;;;9.47;100.00;99048.13;5054911;28;19971;-78
2021/12/28 12:40:19;;;;;;;;;;;;;;;9.64;100.00;99032.53;5056098;28;19920;-78
2021/12/28 12:43:04;;;;;;;;;;;;;;;9.72;100.00;99022.13;5055067;28;20004;-78
2021/12/28 12:45:48;;;;;;;;;;;;;;;9.78;100.00;99014.28;5055227;28;19921;-77
2021/12/28 12:48:33;;;;;;;;;;;;;;;9.78;100.00;99006.41;5055952;28;19921;-79
2021/12/28 12:51:17;;;;;;;;;;;;;;;9.84;100.00;98997.72;5059365;28;19921;-78
2021/12/28 12:53:47;;;;;;;;;;;;;;;9.81;100.00;98990.66;5058513;28;20020;-78
2021/12/28 12:56:16;;;;;;;;;;;;;;;9.72;100.00;98982.69;5058011;28;19927;-79
2021/12/28 12:58:46;;;;;;;;;;;;;;;9.60;100.00;98965.06;5058596;28;19924;-79
2021/12/28 13:01:24;;;;;;;;;;;;;;;9.45;100.00;98957.91;5057508;28;19992;-79
2021/12/28 13:03:49;;;;;;;;;;;;;;;9.31;100.00;98960.38;5081753;28;19924;-79
2021/12/28 13:06:36;;;;;;;;;;;;;;;9.28;100.00;98951.59;5059235;28;19920;-78